Time;durP1;ratioP1;P1;durP2;ratioP2;P2;SDS_P1;SDS_P2;PMS_P1;PMS_P2;Temp;Humidity;BMP_temperature;BMP_pressure;BME280_temperature;BME280_humidity;BME280_pressure;Samples;Min_cycle;Max_cycle;Signal;HPM_P1;HPM_P2
2023/10/31 00:01:06;;;;;;;5.78;3.33;;;;;;;12.82;50.06;94077.94;4979897;28;20030;-78
2023/10/31 00:03:31;;;;;;;5.88;3.55;;;;;;;12.67;50.22;94067.78;4980520;28;20081;-78
2023/10/31 00:05:57;;;;;;;7.78;3.28;;;;;;;12.66;50.58;94084.91;4980124;28;20034;-77
2023/10/31 00:08:24;;;;;;;6.07;3.38;;;;;;;12.50;50.54;94043.81;4982236;28;20117;-78
2023/10/31 00:10:49;;;;;;;7.57;3.95;;;;;;;12.74;50.67;94077.97;4977355;28;20031;-78
2023/10/31 00:13:15;;;;;;;7.13;3.97;;;;;;;12.55;50.70;94054.31;4981034;28;20278;-77
2023/10/31 00:15:40;;;;;;;5.72;3.90;;;;;;;12.57;51.00;94049.41;4980644;28;20358;-78
2023/10/31 00:18:05;;;;;;;8.32;4.18;;;;;;;12.67;50.93;94067.00;4979429;28;20046;-78
2023/10/31 00:20:31;;;;;;;5.65;4.57;;;;;;;12.56;50.67;94042.53;4975824;28;20050;-77
2023/10/31 00:22:56;;;;;;;5.05;3.92;;;;;;;12.51;50.90;94061.41;4978813;28;20030;-77
2023/10/31 00:25:21;;;;;;;7.57;3.05;;;;;;;12.40;51.14;94041.50;4980273;28;20081;-78
2023/10/31 00:27:47;;;;;;;9.63;3.70;;;;;;;12.36;51.72;94037.91;4970997;28;20060;-77
2023/10/31 00:30:12;;;;;;;8.88;4.50;;;;;;;12.30;51.95;94039.16;4978619;28;20516;-77
2023/10/31 00:32:37;;;;;;;5.40;3.55;;;;;;;12.26;52.06;94040.91;4980985;28;20048;-78
2023/10/31 00:35:03;;;;;;;5.47;3.30;;;;;;;12.18;51.95;94020.34;4980089;28;20129;-78
2023/10/31 00:37:28;;;;;;;9.48;3.92;;;;;;;12.28;51.95;94036.00;4979257;28;20038;-77
2023/10/31 00:39:54;;;;;;;8.68;3.65;;;;;;;12.37;52.11;94063.47;4979424;28;20057;-77
2023/10/31 00:42:19;;;;;;;8.32;3.92;;;;;;;12.35;51.94;94036.31;4977362;28;20030;-76
2023/10/31 00:44:45;;;;;;;9.25;4.72;;;;;;;12.30;51.87;94020.50;4976918;28;20034;-77
2023/10/31 00:47:10;;;;;;;8.35;5.75;;;;;;;12.56;51.58;94055.88;4981746;28;20030;-78
2023/10/31 00:49:35;;;;;;;7.72;4.50;;;;;;;12.38;51.52;94019.66;4979877;28;20030;-77
2023/10/31 00:52:01;;;;;;;6.05;4.65;;;;;;;12.52;51.54;94044.25;4980389;28;20109;-78
2023/10/31 00:54:26;;;;;;;6.43;4.32;;;;;;;12.47;51.61;94044.44;4976704;28;20033;-77
2023/10/31 00:56:51;;;;;;;7.07;4.68;;;;;;;12.47;51.90;94033.75;4977136;28;20038;-78
2023/10/31 00:59:17;;;;;;;5.60;4.22;;;;;;;12.45;51.87;94014.63;4981791;28;20108;-77
2023/10/31 01:01:43;;;;;;;8.65;4.78;;;;;;;12.62;51.36;94038.59;4978365;28;20063;-77
2023/10/31 01:04:08;;;;;;;7.20;4.53;;;;;;;12.52;51.73;94030.91;4975522;28;20030;-78
2023/10/31 01:06:34;;;;;;;9.38;5.07;;;;;;;12.36;51.71;94019.22;4980782;28;20436;-78
2023/10/31 01:08:59;;;;;;;8.27;5.25;;;;;;;12.25;51.89;94002.00;4976953;28;20500;-78
2023/10/31 01:11:24;;;;;;;8.43;5.43;;;;;;;12.18;52.07;93988.34;4980684;28;20049;-78
2023/10/31 01:13:50;;;;;;;8.57;4.78;;;;;;;12.15;52.04;93989.00;4975273;28;20041;-77
2023/10/31 01:16:17;;;;;;;7.72;4.18;;;;;;;12.41;52.04;94019.84;4977494;28;20038;-78
2023/10/31 01:18:42;;;;;;;7.88;4.60;;;;;;;12.23;52.08;94006.84;4978316;28;20717;-78
2023/10/31 01:21:09;;;;;;;11.70;5.25;;;;;;;12.29;52.14;94032.25;4978609;28;20042;-77
2023/10/31 01:23:34;;;;;;;14.65;5.43;;;;;;;12.11;52.57;94012.06;4978837;28;20031;-78
2023/10/31 01:25:59;;;;;;;7.85;4.68;;;;;;;12.20;52.60;94031.50;4977656;28;21216;-77
2023/10/31 01:28:24;;;;;;;8.18;3.85;;;;;;;11.95;52.67;93980.59;4979855;28;20568;-77
2023/10/31 01:30:50;;;;;;;13.23;4.43;;;;;;;12.01;52.68;94005.97;4977390;28;20076;-77
2023/10/31 01:33:15;;;;;;;7.88;3.95;;;;;;;12.19;52.62;94019.25;4981670;28;20050;-78
2023/10/31 01:35:41;;;;;;;7.07;3.50;;;;;;;12.13;52.87;94012.53;4976597;28;20038;-78
2023/10/31 01:38:06;;;;;;;6.93;4.07;;;;;;;11.83;53.48;93961.78;4980672;28;20042;-76
2023/10/31 01:40:32;;;;;;;7.03;3.47;;;;;;;12.08;53.48;94010.81;4977765;28;20173;-77
2023/10/31 01:42:57;;;;;;;12.55;3.90;;;;;;;12.12;53.72;94016.31;4980208;28;20054;-78
2023/10/31 01:45:22;;;;;;;7.82;3.90;;;;;;;11.97;53.76;93994.38;4980036;28;20112;-78
2023/10/31 01:47:49;;;;;;;8.32;3.58;;;;;;;12.00;54.04;93999.06;4977491;28;20069;-77
2023/10/31 01:50:15;;;;;;;6.75;3.85;;;;;;;12.10;53.64;94015.84;4980493;28;20113;-78
2023/10/31 01:52:41;;;;;;;5.45;3.67;;;;;;;11.81;53.97;93957.88;4976657;28;20057;-77
2023/10/31 01:55:07;;;;;;;5.68;3.08;;;;;;;12.19;54.01;94021.91;4979765;28;20465;-77
2023/10/31 01:57:32;;;;;;;7.15;3.55;;;;;;;12.20;53.92;94013.63;4978495;28;20025;-77
2023/10/31 01:59:59;;;;;;;6.88;3.70;;;;;;;11.94;54.24;93972.91;4977368;28;20046;-78
2023/10/31 02:02:26;;;;;;;5.85;3.50;;;;;;;12.17;54.18;94002.81;4974287;28;20050;-77
2023/10/31 02:04:52;;;;;;;5.03;3.33;;;;;;;12.13;54.10;93986.66;4977811;28;20449;-77
2023/10/31 02:07:18;;;;;;;11.40;4.03;;;;;;;12.16;54.04;93998.56;4979874;28;20068;-78
2023/10/31 02:09:43;;;;;;;10.60;3.90;;;;;;;12.08;53.90;93962.06;4977380;28;20537;-78
2023/10/31 02:12:08;;;;;;;7.15;4.72;;;;;;;12.08;53.86;93972.72;4978527;28;20034;-78
2023/10/31 02:14:34;;;;;;;4.32;3.10;;;;;;;11.63;53.79;93901.19;4978504;28;20650;-78
2023/10/31 02:16:59;;;;;;;7.68;2.90;;;;;;;12.14;53.82;93993.56;4978373;28;20983;-78
2023/10/31 02:19:25;;;;;;;6.10;3.28;;;;;;;12.07;53.55;93981.81;4979926;28;20666;-77
2023/10/31 02:21:50;;;;;;;6.38;3.22;;;;;;;12.15;53.65;93994.34;4976309;28;20085;-78
2023/10/31 02:24:16;;;;;;;7.18;3.28;;;;;;;12.06;54.14;93982.91;4978592;28;20093;-78
2023/10/31 02:26:41;;;;;;;6.10;3.38;;;;;;;11.86;54.12;93947.84;4976093;28;20445;-77
2023/10/31 02:29:06;;;;;;;4.65;3.38;;;;;;;11.98;54.10;93963.16;4978300;28;20043;-79
2023/10/31 02:31:32;;;;;;;5.30;3.55;;;;;;;12.01;54.29;93967.88;4978976;28;20516;-78
2023/10/31 02:33:57;;;;;;;5.80;2.80;;;;;;;11.98;53.91;93958.63;4978027;28;20028;-78
2023/10/31 02:36:23;;;;;;;5.05;2.55;;;;;;;12.01;53.81;93963.34;4978067;28;20038;-78
2023/10/31 02:38:49;;;;;;;6.90;2.60;;;;;;;12.04;53.82;93978.69;4979285;28;20512;-77
2023/10/31 02:41:14;;;;;;;3.47;2.70;;;;;;;11.96;54.30;93974.16;4980182;28;20030;-78
2023/10/31 02:43:41;;;;;;;5.47;3.65;;;;;;;12.01;54.63;93973.22;4975584;28;20598;-77
2023/10/31 02:46:06;;;;;;;7.68;3.47;;;;;;;12.00;54.44;93977.75;4993025;28;20025;-78
2023/10/31 02:48:38;;;;;;;5.93;3.22;;;;;;;11.84;54.96;93960.69;4977356;28;20536;-77
2023/10/31 02:51:04;;;;;;;13.15;3.70;;;;;;;11.73;54.90;93951.47;4966979;28;20385;-77
2023/10/31 02:53:29;;;;;;;7.88;3.75;;;;;;;11.73;55.29;93951.47;4978240;28;20481;-77
2023/10/31 02:55:55;;;;;;;5.88;3.45;;;;;;;11.75;55.34;93965.25;4978379;28;20030;-77
2023/10/31 02:58:20;;;;;;;6.20;3.88;;;;;;;11.79;55.67;93973.41;4975108;28;20822;-78
2023/10/31 03:00:46;;;;;;;11.15;3.72;;;;;;;11.73;55.42;93967.47;4979505;28;20022;-77
2023/10/31 03:03:11;;;;;;;14.63;5.28;;;;;;;11.73;55.36;93964.81;4978474;28;20065;-78
2023/10/31 03:05:36;;;;;;;13.75;4.32;;;;;;;11.95;55.44;93985.91;4977803;28;20034;-77
2023/10/31 03:08:02;;;;;;;6.38;3.92;;;;;;;11.79;55.87;93965.41;4975955;28;20481;-78
2023/10/31 03:10:27;;;;;;;4.00;3.40;;;;;;;11.71;56.01;93964.31;4977240;28;20030;-78
2023/10/31 03:12:52;;;;;;;4.28;3.25;;;;;;;11.65;55.60;93954.94;4977375;28;20022;-78
2023/10/31 03:15:18;;;;;;;7.03;3.85;;;;;;;11.75;55.79;93965.25;4977977;28;20042;-77
2023/10/31 03:17:43;;;;;;;6.57;4.18;;;;;;;11.65;55.91;93944.28;4976047;28;20030;-77
2023/10/31 03:20:09;;;;;;;8.23;3.65;;;;;;;11.80;55.83;93956.31;4977221;28;20129;-78
2023/10/31 03:22:35;;;;;;;9.05;4.03;;;;;;;11.92;56.13;93959.13;4979673;28;20049;-77
2023/10/31 03:25:01;;;;;;;7.55;4.13;;;;;;;11.88;56.21;93942.97;4976876;28;20022;-77
2023/10/31 03:27:26;;;;;;;7.00;4.32;;;;;;;11.84;56.30;93946.59;4978193;28;20054;-79
2023/10/31 03:29:51;;;;;;;6.03;4.68;;;;;;;11.93;55.46;93961.44;4980959;28;20026;-78
2023/10/31 03:32:17;;;;;;;6.22;3.40;;;;;;;11.77;55.68;93939.09;4980840;28;20045;-78
2023/10/31 03:34:42;;;;;;;4.47;3.92;;;;;;;11.99;55.78;93962.84;4981139;28;20046;-76
2023/10/31 03:37:08;;;;;;;6.50;4.57;;;;;;;11.67;55.78;93925.31;4980203;28;20033;-78
2023/10/31 03:39:33;;;;;;;8.18;4.72;;;;;;;11.84;56.08;93939.38;4979222;28;20154;-77
2023/10/31 03:41:59;;;;;;;8.38;4.45;;;;;;;11.69;56.68;93913.22;4980360;28;20903;-78
2023/10/31 03:44:25;;;;;;;9.30;4.80;;;;;;;11.68;55.62;93921.56;4980804;28;20089;-77
2023/10/31 03:46:50;;;;;;;5.22;3.72;;;;;;;11.77;55.57;93951.63;4979984;28;20042;-77
2023/10/31 03:49:16;;;;;;;10.32;4.88;;;;;;;11.61;56.28;93956.66;4978901;28;20121;-77
2023/10/31 03:51:41;;;;;;;9.70;4.78;;;;;;;11.65;55.57;93948.81;4980681;28;20454;-77
2023/10/31 03:54:07;;;;;;;9.60;4.38;;;;;;;11.71;55.45;93953.66;4977509;28;20173;-78
2023/10/31 03:56:40;;;;;;;9.82;5.50;;;;;;;11.34;55.84;93928.47;4981551;28;20061;-77
2023/10/31 03:59:05;;;;;;;9.02;4.93;;;;;;;11.40;55.47;93942.38;4971910;28;20114;-77
2023/10/31 04:01:30;;;;;;;12.00;5.20;;;;;;;11.46;55.68;93957.13;4977948;28;20470;-77
2023/10/31 04:03:56;;;;;;;11.52;4.75;;;;;;;11.36;55.66;93944.13;4981728;28;20030;-77
2023/10/31 04:06:22;;;;;;;13.13;5.43;;;;;;;11.18;55.33;93919.38;4978067;28;20069;-78
2023/10/31 04:08:47;;;;;;;11.48;5.72;;;;;;;11.32;55.54;93956.50;4980342;28;20137;-77
2023/10/31 04:11:13;;;;;;;10.13;5.93;;;;;;;11.30;55.62;93962.13;4977354;28;20596;-77
2023/10/31 04:13:38;;;;;;;13.50;5.47;;;;;;;11.18;55.91;93968.09;4980346;28;20034;-77
2023/10/31 04:16:04;;;;;;;9.25;5.63;;;;;;;11.08;56.02;93938.31;4978171;28;20024;-77
2023/10/31 04:18:29;;;;;;;9.60;5.43;;;;;;;10.96;55.40;93920.31;4977417;28;20061;-78
2023/10/31 04:20:54;;;;;;;8.52;5.30;;;;;;;11.15;55.73;93944.72;4981090;28;20567;-77
2023/10/31 04:23:20;;;;;;;8.88;5.03;;;;;;;11.12;55.65;93948.03;4979817;28;20452;-77
2023/10/31 04:25:46;;;;;;;8.70;4.97;;;;;;;11.12;55.34;93941.94;4980431;28;20053;-77
2023/10/31 04:28:13;;;;;;;7.68;5.10;;;;;;;11.07;55.39;93945.53;4980348;28;20105;-77
2023/10/31 04:30:38;;;;;;;11.02;5.85;;;;;;;10.90;55.45;93924.25;4980432;28;20014;-77
2023/10/31 04:33:04;;;;;;;7.07;4.50;;;;;;;10.84;56.22;93933.47;4980538;28;20058;-78
2023/10/31 04:35:29;;;;;;;6.30;4.97;;;;;;;10.59;56.34;93903.06;4996138;28;20050;-77
2023/10/31 04:37:54;;;;;;;21.85;10.18;;;;;;;10.86;56.08;93939.22;4980129;28;20031;-77
2023/10/31 04:40:20;;;;;;;32.95;15.13;;;;;;;10.76;56.25;93922.81;4977715;28;20377;-78
2023/10/31 04:42:46;;;;;;;19.35;11.52;;;;;;;10.89;56.42;93930.66;4977493;28;20029;-77
2023/10/31 04:45:12;;;;;;;17.63;9.18;;;;;;;10.82;56.67;93934.84;4981709;28;20624;-77
2023/10/31 04:47:37;;;;;;;18.85;9.27;;;;;;;10.76;56.69;93931.53;4980708;28;20104;-78
2023/10/31 04:50:03;;;;;;;23.02;13.80;;;;;;;10.65;56.07;93925.75;4981445;28;20061;-78
2023/10/31 04:52:28;;;;;;;23.42;12.50;;;;;;;10.51;56.35;93903.06;4976918;28;20042;-78
2023/10/31 04:54:53;;;;;;;21.50;10.32;;;;;;;10.74;56.45;93941.72;4981142;28;20461;-77
2023/10/31 04:57:19;;;;;;;18.33;9.40;;;;;;;10.39;56.52;93887.69;4980604;28;20385;-77
2023/10/31 04:59:44;;;;;;;16.27;8.25;;;;;;;10.50;55.99;93906.78;4978061;28;20173;-77
2023/10/31 05:02:09;;;;;;;10.85;5.80;;;;;;;10.61;56.77;93938.09;4978921;28;20070;-78
2023/10/31 05:04:39;;;;;;;10.77;6.25;;;;;;;10.69;56.89;93952.50;4978307;28;20038;-78
2023/10/31 05:07:04;;;;;;;13.05;6.05;;;;;;;10.51;56.90;93942.94;4978632;28;20018;-79
2023/10/31 05:09:29;;;;;;;12.82;6.30;;;;;;;10.47;56.86;93947.28;4976448;28;20033;-78
2023/10/31 05:11:55;;;;;;;11.48;6.75;;;;;;;10.67;57.02;93957.34;4980393;28;20042;-77
2023/10/31 05:14:20;;;;;;;15.60;7.10;;;;;;;10.67;56.51;93952.03;4978856;28;20040;-78
2023/10/31 05:16:45;;;;;;;13.07;6.88;;;;;;;10.53;56.63;93949.50;4981100;28;20100;-77
2023/10/31 05:19:11;;;;;;;11.80;6.88;;;;;;;10.22;56.97;93914.97;4978035;28;20146;-78
2023/10/31 05:21:36;;;;;;;11.75;6.70;;;;;;;10.47;57.09;93969.34;4980360;28;20033;-77
2023/10/31 05:24:02;;;;;;;16.52;8.98;;;;;;;10.38;57.36;93943.81;4979648;28;20372;-77
2023/10/31 05:26:30;;;;;;;16.92;7.30;;;;;;;10.58;57.24;93972.50;4976896;28;20051;-77
2023/10/31 05:28:59;;;;;;;15.77;7.75;;;;;;;10.43;57.31;93925.84;4977709;28;20046;-77
2023/10/31 05:31:25;;;;;;;12.70;7.40;;;;;;;10.67;56.87;93965.34;4979636;28;20038;-77
2023/10/31 05:33:52;;;;;;;13.80;7.35;;;;;;;10.49;57.15;93945.09;4977793;28;20026;-79
2023/10/31 05:36:19;;;;;;;13.48;6.82;;;;;;;9.78;58.05;93860.09;4981180;28;21144;-77
2023/10/31 05:38:45;;;;;;;16.58;7.55;;;;;;;10.48;57.51;93973.56;4977937;28;20050;-78
2023/10/31 05:41:10;;;;;;;12.85;7.18;;;;;;;10.30;57.99;93948.78;4977221;28;20100;-77
2023/10/31 05:43:35;;;;;;;16.13;7.55;;;;;;;10.58;57.60;93975.94;4979581;28;20695;-78
2023/10/31 05:46:01;;;;;;;12.93;7.57;;;;;;;10.46;58.31;93948.41;4979177;28;20077;-78
2023/10/31 05:48:26;;;;;;;15.85;7.68;;;;;;;10.28;58.14;93903.09;4978267;28;20045;-77
2023/10/31 05:50:51;;;;;;;20.05;7.70;;;;;;;10.48;58.12;93928.38;4975114;28;20042;-77
2023/10/31 05:53:17;;;;;;;14.00;7.90;;;;;;;10.53;58.45;93952.16;4974926;28;20042;-77
2023/10/31 05:55:42;;;;;;;12.93;7.30;;;;;;;10.58;58.79;93969.84;4978036;28;20037;-78
2023/10/31 05:58:07;;;;;;;13.75;6.45;;;;;;;10.56;59.86;93994.09;4973691;28;20042;-78
2023/10/31 06:00:33;;;;;;;10.93;6.90;;;;;;;10.40;60.26;93989.50;4977450;28;20023;-78
2023/10/31 06:02:58;;;;;;;16.27;8.15;;;;;;;10.36;60.19;93956.63;4977754;28;20488;-77
2023/10/31 06:05:23;;;;;;;16.23;8.60;;;;;;;10.63;60.98;93998.97;4978792;28;20030;-77
2023/10/31 06:07:49;;;;;;;13.90;8.40;;;;;;;10.61;61.30;93982.56;4974458;28;20039;-78
2023/10/31 06:10:15;;;;;;;12.25;8.60;;;;;;;10.73;60.09;93988.84;4977629;28;20034;-77
2023/10/31 06:12:40;;;;;;;23.35;10.40;;;;;;;10.89;59.53;94012.34;4977256;28;20022;-78
2023/10/31 06:15:06;;;;;;;24.48;11.30;;;;;;;10.95;59.28;94006.56;4977593;28;20620;-77
2023/10/31 06:17:34;;;;;;;18.27;11.82;;;;;;;10.81;59.01;93981.94;4977979;28;20567;-78
2023/10/31 06:19:59;;;;;;;16.02;10.27;;;;;;;10.96;58.62;93988.72;4974505;28;20046;-77
2023/10/31 06:22:24;;;;;;;30.63;12.82;;;;;;;11.03;58.69;94008.47;4977807;28;20113;-78
2023/10/31 06:24:50;;;;;;;26.27;12.32;;;;;;;10.91;57.85;93980.88;4979469;28;20032;-77
2023/10/31 06:27:15;;;;;;;21.17;12.00;;;;;;;10.72;59.48;94003.22;4977867;28;20531;-77
2023/10/31 06:29:40;;;;;;;30.40;12.52;;;;;;;10.62;59.11;93960.16;4980123;28;20096;-78
2023/10/31 06:32:06;;;;;;;18.45;11.40;;;;;;;10.88;58.47;93982.28;4976245;28;20038;-78
2023/10/31 06:34:31;;;;;;;18.75;11.05;;;;;;;10.27;60.73;93981.28;4977658;28;20041;-78
2023/10/31 06:36:57;;;;;;;25.02;11.00;;;;;;;10.86;60.21;94016.41;4977737;28;20410;-78
2023/10/31 06:39:22;;;;;;;18.95;10.25;;;;;;;10.97;60.32;94020.34;4977178;28;20183;-78
2023/10/31 06:41:48;;;;;;;20.27;10.20;;;;;;;11.17;58.95;93995.00;4976888;28;20098;-78
2023/10/31 06:44:13;;;;;;;16.55;10.25;;;;;;;11.01;58.74;94004.53;4974067;28;20042;-77
2023/10/31 06:46:39;;;;;;;15.55;9.40;;;;;;;11.35;58.94;94001.91;4985153;28;20126;-77
2023/10/31 06:49:04;;;;;;;12.30;9.25;;;;;;;11.67;57.86;93995.38;4977011;28;20030;-78
2023/10/31 06:51:29;;;;;;;21.17;10.88;;;;;;;11.49;57.84;93983.13;4975183;28;20018;-77
2023/10/31 06:53:55;;;;;;;18.75;10.02;;;;;;;10.99;59.29;93970.25;4973452;28;20489;-78
2023/10/31 06:56:20;;;;;;;15.90;9.57;;;;;;;11.41;59.34;93970.59;4978106;28;20038;-78
2023/10/31 06:58:46;;;;;;;20.15;10.32;;;;;;;11.70;58.02;93956.63;4974391;28;20425;-77
2023/10/31 07:01:12;;;;;;;17.27;10.60;;;;;;;11.68;56.69;93978.28;4977298;28;20053;-78
2023/10/31 07:03:37;;;;;;;19.05;11.73;;;;;;;11.34;57.98;93951.66;4995257;28;20489;-78
2023/10/31 07:06:03;;;;;;;22.40;11.70;;;;;;;11.77;58.51;93979.06;4978644;28;20082;-78
2023/10/31 07:08:29;;;;;;;18.85;10.82;;;;;;;11.97;57.72;93983.72;4979772;28;20045;-78
2023/10/31 07:10:55;;;;;;;21.10;11.65;;;;;;;12.07;56.06;93971.94;4980092;28;20121;-78
2023/10/31 07:13:20;;;;;;;17.70;11.13;;;;;;;12.30;56.10;93988.50;4980917;28;20419;-78
2023/10/31 07:15:46;;;;;;;25.67;10.70;;;;;;;12.31;56.01;93987.41;4980550;28;20231;-78
2023/10/31 07:18:12;;;;;;;16.27;11.10;;;;;;;11.95;56.87;93969.91;4976359;28;20042;-79
2023/10/31 07:20:37;;;;;;;25.05;12.85;;;;;;;12.27;56.41;93983.81;4978018;28;20058;-78
2023/10/31 07:23:02;;;;;;;21.98;12.27;;;;;;;12.52;56.02;93982.16;4977181;28;20038;-78
2023/10/31 07:25:28;;;;;;;17.45;11.25;;;;;;;12.55;55.84;93979.59;4975551;28;20042;-76
2023/10/31 07:27:53;;;;;;;20.25;12.32;;;;;;;12.03;56.03;93939.78;4975639;28;20026;-78
2023/10/31 07:30:19;;;;;;;17.75;12.18;;;;;;;12.39;55.91;93994.56;4977210;28;20446;-78
2023/10/31 07:32:44;;;;;;;19.02;12.63;;;;;;;12.25;56.01;93988.66;4975910;28;20038;-77
2023/10/31 07:35:10;;;;;;;18.98;12.45;;;;;;;12.39;56.00;93989.25;4973935;28;20137;-78
2023/10/31 07:37:36;;;;;;;28.48;13.25;;;;;;;12.45;55.83;93978.09;4973986;28;20417;-78
2023/10/31 07:40:04;;;;;;;22.70;13.40;;;;;;;12.55;55.40;93950.25;4976050;28;20036;-79
2023/10/31 07:42:30;;;;;;;20.33;13.80;;;;;;;12.75;55.06;93949.56;4974202;28;20038;-76
2023/10/31 07:44:55;;;;;;;23.45;12.48;;;;;;;13.12;54.89;93973.81;4974739;28;20030;-79
2023/10/31 07:47:21;;;;;;;25.17;13.88;;;;;;;12.80;55.87;93968.06;4970197;28;20535;-77
2023/10/31 07:49:48;;;;;;;25.60;13.77;;;;;;;12.74;55.36;93921.31;4977648;28;20038;-77
2023/10/31 07:52:13;;;;;;;19.95;13.70;;;;;;;13.12;54.89;93955.91;4975567;28;20338;-77
2023/10/31 07:54:40;;;;;;;22.08;13.50;;;;;;;13.03;55.46;93960.53;4976814;28;20030;-77
2023/10/31 07:57:06;;;;;;;22.48;11.68;;;;;;;13.07;55.49;93933.97;4976056;28;20537;-79
2023/10/31 07:59:35;;;;;;;27.15;11.40;;;;;;;13.25;54.56;93935.41;4990617;28;20045;-78
2023/10/31 08:02:01;;;;;;;16.17;10.70;;;;;;;13.03;55.68;93946.41;4977774;28;20591;-79
2023/10/31 08:04:28;;;;;;;15.23;10.13;;;;;;;13.38;55.22;93955.72;4973073;28;20062;-78
2023/10/31 08:06:53;;;;;;;20.25;10.38;;;;;;;13.35;54.52;93932.31;4972071;28;20022;-80
2023/10/31 08:09:18;;;;;;;21.73;9.90;;;;;;;13.26;54.06;93889.66;4973206;28;20508;-78
2023/10/31 08:11:44;;;;;;;22.17;10.45;;;;;;;13.61;53.89;93940.16;4971850;28;20038;-79
2023/10/31 08:14:10;;;;;;;17.52;10.60;;;;;;;13.45;54.12;93931.91;4972219;28;20038;-79
2023/10/31 08:16:35;;;;;;;25.55;11.60;;;;;;;13.64;53.53;93934.91;4971092;28;20031;-79
2023/10/31 08:19:02;;;;;;;16.58;10.65;;;;;;;13.80;52.94;93923.59;4974355;28;20061;-78
2023/10/31 08:21:33;;;;;;;19.25;10.90;;;;;;;13.99;53.08;93929.22;4972872;28;20073;-79
2023/10/31 08:23:59;;;;;;;22.75;11.32;;;;;;;14.05;53.57;93917.22;4972142;28;20052;-78
2023/10/31 08:26:24;;;;;;;22.98;10.35;;;;;;;14.19;52.82;93901.63;4972505;28;20508;-78
2023/10/31 08:28:51;;;;;;;19.88;10.32;;;;;;;14.40;52.68;93893.50;4972201;28;20057;-78
2023/10/31 08:31:16;;;;;;;21.65;9.43;;;;;;;14.47;51.61;93889.16;4970078;28;21420;-78
2023/10/31 08:33:42;;;;;;;18.35;9.57;;;;;;;14.64;51.74;93908.81;4973226;28;20053;-79
2023/10/31 08:36:07;;;;;;;16.52;10.82;;;;;;;14.52;52.07;93880.91;4973511;28;20034;-78
2023/10/31 08:38:33;;;;;;;27.05;10.60;;;;;;;14.36;51.92;93855.94;4961837;28;20100;-77
2023/10/31 08:40:59;;;;;;;18.55;9.02;;;;;;;14.69;51.28;93898.66;4970796;28;20053;-79
2023/10/31 08:43:24;;;;;;;15.57;8.57;;;;;;;14.60;51.90;93882.72;4969614;28;20045;-77
2023/10/31 08:45:49;;;;;;;23.00;8.70;;;;;;;14.91;51.20;93892.81;4971080;28;20058;-78
2023/10/31 08:48:15;;;;;;;17.52;8.60;;;;;;;14.89;50.63;93862.94;4972929;28;20579;-78
2023/10/31 08:50:41;;;;;;;15.15;7.97;;;;;;;15.23;50.00;93880.34;4971504;28;20034;-78
2023/10/31 08:53:06;;;;;;;15.07;8.48;;;;;;;15.26;50.03;93871.63;4972383;28;20040;-79
2023/10/31 08:55:32;;;;;;;21.90;8.38;;;;;;;15.14;50.40;93858.28;4970335;28;20485;-79
2023/10/31 08:57:57;;;;;;;20.05;7.47;;;;;;;15.05;50.27;93863.00;4974038;28;20424;-78
2023/10/31 09:00:23;;;;;;;17.20;8.15;;;;;;;15.06;49.62;93861.88;4971179;28;20145;-78
2023/10/31 09:02:48;;;;;;;15.60;7.80;;;;;;;15.10;50.26;93857.41;4972251;28;20038;-78
2023/10/31 09:05:14;;;;;;;16.75;7.70;;;;;;;15.19;49.35;93868.75;4968383;28;20569;-79
2023/10/31 09:07:40;;;;;;;15.48;7.88;;;;;;;15.37;49.16;93853.94;4971488;28;20037;-79
2023/10/31 09:10:06;;;;;;;14.50;7.07;;;;;;;15.21;48.68;93830.91;4984740;28;20029;-79
2023/10/31 09:12:31;;;;;;;15.07;7.45;;;;;;;15.50;48.61;93832.50;4967627;28;20335;-79
2023/10/31 09:14:57;;;;;;;24.73;9.35;;;;;;;15.58;47.14;93836.91;4969641;28;20130;-79
2023/10/31 09:17:22;;;;;;;20.73;9.35;;;;;;;15.45;47.46;93823.56;4962549;28;20039;-78
2023/10/31 09:19:48;;;;;;;15.57;8.23;;;;;;;15.41;46.49;93833.38;4968728;28;20046;-79
2023/10/31 09:22:13;;;;;;;13.07;6.55;;;;;;;15.56;46.65;93833.78;4971864;28;20041;-79
2023/10/31 09:24:40;;;;;;;22.33;7.55;;;;;;;15.71;46.42;93814.25;4970188;28;20025;-79
2023/10/31 09:27:05;;;;;;;13.13;6.65;;;;;;;15.76;45.85;93825.50;4969664;28;20442;-78
2023/10/31 09:29:30;;;;;;;20.52;7.63;;;;;;;15.61;45.92;93774.56;4971630;28;20039;-78
2023/10/31 09:31:56;;;;;;;8.48;5.65;;;;;;;15.82;45.43;93791.97;4971514;28;20623;-77
2023/10/31 09:34:21;;;;;;;12.60;5.53;;;;;;;15.63;44.86;93791.09;4969516;28;20041;-77
2023/10/31 09:36:47;;;;;;;11.23;5.10;;;;;;;15.62;45.75;93800.25;4968837;28;20033;-78
2023/10/31 09:39:12;;;;;;;12.80;5.30;;;;;;;15.71;45.70;93806.22;4970867;28;20039;-77
2023/10/31 09:41:37;;;;;;;7.70;4.43;;;;;;;15.74;45.34;93762.66;4968683;28;20042;-78
2023/10/31 09:44:03;;;;;;;13.75;5.30;;;;;;;15.83;45.79;93774.75;4971528;28;20121;-79
2023/10/31 09:46:28;;;;;;;14.00;5.82;;;;;;;15.59;45.54;93758.06;4969410;28;20053;-78
2023/10/31 09:48:55;;;;;;;12.05;5.65;;;;;;;15.96;45.66;93780.00;4972390;28;20654;-79
2023/10/31 09:51:21;;;;;;;12.30;6.85;;;;;;;15.29;45.01;93655.84;4968326;28;20556;-79
2023/10/31 09:53:47;;;;;;;12.68;5.28;;;;;;;15.94;45.64;93772.31;4970131;28;20046;-77
2023/10/31 09:56:14;;;;;;;8.02;5.10;;;;;;;15.96;45.63;93770.06;4969473;28;20061;-78
2023/10/31 09:58:41;;;;;;;8.73;4.65;;;;;;;16.05;45.09;93757.25;4966062;28;20119;-77
2023/10/31 10:01:07;;;;;;;13.77;4.85;;;;;;;15.76;45.43;93765.75;4973616;28;20026;-78
2023/10/31 10:03:33;;;;;;;19.17;5.00;;;;;;;15.99;45.16;93763.25;4968945;28;20034;-77
2023/10/31 10:05:58;;;;;;;12.23;5.25;;;;;;;15.99;44.87;93737.16;4965732;28;20042;-78
2023/10/31 10:08:24;;;;;;;13.57;4.45;;;;;;;16.11;44.72;93745.13;4968003;28;20073;-76
2023/10/31 10:10:50;;;;;;;10.38;4.75;;;;;;;16.01;44.98;93734.94;4969376;28;20042;-79
2023/10/31 10:13:20;;;;;;;10.55;5.63;;;;;;;16.17;44.64;93719.59;4967854;28;20030;-79
2023/10/31 10:15:52;;;;;;;7.95;3.90;;;;;;;16.43;44.19;93731.69;4968485;28;20038;-78
2023/10/31 10:18:35;;;;;;;7.15;3.90;;;;;;;16.10;43.26;93695.28;4966970;28;20129;-78
2023/10/31 10:21:04;;;;;;;14.52;3.85;;;;;;;16.10;42.35;93689.91;4966702;28;21048;-78
2023/10/31 10:23:30;;;;;;;9.00;3.45;;;;;;;16.56;43.08;93690.91;4967767;28;20034;-78
2023/10/31 10:25:57;;;;;;;8.77;3.45;;;;;;;16.92;42.22;93708.50;4975686;28;20521;-78
2023/10/31 10:28:26;;;;;;;9.43;3.97;;;;;;;16.92;42.50;93681.63;4972470;28;20046;-78
2023/10/31 10:30:53;;;;;;;8.48;3.88;;;;;;;16.91;41.98;93695.44;4975773;28;20108;-78
2023/10/31 10:33:19;;;;;;;13.52;4.07;;;;;;;17.18;42.03;93702.47;4970982;28;20046;-77
2023/10/31 10:35:45;;;;;;;7.15;3.60;;;;;;;17.25;42.37;93699.16;4975374;28;20362;-78
2023/10/31 10:38:14;;;;;;;11.82;4.00;;;;;;;17.09;41.58;93683.88;4980606;28;20042;-77
2023/10/31 10:40:44;;;;;;;10.25;4.28;;;;;;;16.88;41.87;93659.28;4978175;28;20042;-78
2023/10/31 10:43:17;;;;;;;8.77;3.60;;;;;;;17.07;42.17;93683.44;4979356;28;20030;-78
2023/10/31 10:45:48;;;;;;;8.27;4.07;;;;;;;16.97;41.90;93665.22;4982924;28;20029;-79
2023/10/31 10:48:16;;;;;;;10.77;3.97;;;;;;;16.90;42.12;93651.66;4983144;28;20038;-78
2023/10/31 10:50:45;;;;;;;7.63;3.50;;;;;;;16.96;41.56;93644.88;4979781;28;20038;-78
2023/10/31 10:53:26;;;;;;;9.15;3.78;;;;;;;17.01;41.39;93646.50;4981607;28;20078;-78
2023/10/31 10:55:55;;;;;;;6.80;3.58;;;;;;;16.87;42.04;93660.44;4981315;28;20050;-78
2023/10/31 10:58:34;;;;;;;10.25;4.35;;;;;;;17.09;41.45;93648.16;4979117;28;20636;-78
2023/10/31 11:01:01;;;;;;;8.77;3.45;;;;;;;16.93;40.24;93605.28;4979353;28;20623;-78
2023/10/31 11:03:29;;;;;;;8.98;3.42;;;;;;;17.00;39.78;93613.47;4980367;28;20038;-78
2023/10/31 11:05:55;;;;;;;8.52;2.95;;;;;;;17.13;39.30;93622.94;4980631;28;20374;-78
2023/10/31 11:08:23;;;;;;;6.05;3.38;;;;;;;17.04;38.97;93646.56;4977545;28;20034;-78
2023/10/31 11:10:49;;;;;;;6.90;2.00;;;;;;;17.15;39.62;93636.03;4995279;28;20409;-78
2023/10/31 11:13:15;;;;;;;7.78;2.53;;;;;;;17.44;39.67;93626.50;4979313;28;20125;-79
2023/10/31 11:15:42;;;;;;;8.25;2.78;;;;;;;17.59;38.69;93604.09;4978736;28;20022;-78
2023/10/31 11:18:08;;;;;;;9.63;3.08;;;;;;;17.81;38.38;93618.59;4977210;28;21140;-78
2023/10/31 11:20:36;;;;;;;7.53;3.55;;;;;;;17.68;39.32;93609.19;4974536;28;20042;-79